Time;durP1;ratioP1;P1;durP2;ratioP2;P2;SDS_P1;SDS_P2;PMS_P1;PMS_P2;Temp;Humidity;BMP_temperature;BMP_pressure;BME280_temperature;BME280_humidity;BME280_pressure;Samples;Min_cycle;Max_cycle;Signal;HPM_P1;HPM_P2
2021/01/03 00:01:44;;;;;;;13.40;11.45;;;15.40;49.30;;;;;;4987146;28;20049;-82
2021/01/03 00:04:09;;;;;;;13.50;10.60;;;15.30;49.20;;;;;;4993315;28;20073;-82
2021/01/03 00:06:35;;;;;;;13.45;10.77;;;15.40;49.30;;;;;;4998748;28;20464;-82
2021/01/03 00:09:01;;;;;;;13.50;10.30;;;15.30;49.20;;;;;;4998630;28;20117;-82
2021/01/03 00:11:27;;;;;;;13.15;10.65;;;15.40;49.20;;;;;;4981053;28;20081;-82
2021/01/03 00:13:53;;;;;;;11.98;9.98;;;15.30;49.10;;;;;;4981195;28;20438;-82
2021/01/03 00:16:19;;;;;;;13.43;10.15;;;15.40;49.00;;;;;;4998034;28;20326;-83
2021/01/03 00:18:45;;;;;;;11.98;9.80;;;15.30;49.00;;;;;;4982100;28;20093;-82
2021/01/03 00:21:11;;;;;;;11.77;9.27;;;15.40;49.10;;;;;;4998132;28;20429;-84
2021/01/03 00:23:38;;;;;;;12.25;9.50;;;15.40;49.10;;;;;;4989115;28;20053;-81
2021/01/03 00:26:04;;;;;;;11.57;9.55;;;15.40;49.10;;;;;;4979786;28;20109;-82
2021/01/03 00:28:30;;;;;;;10.85;8.48;;;15.40;49.00;;;;;;4961806;28;20042;-82
2021/01/03 00:30:56;;;;;;;11.10;9.00;;;15.40;49.10;;;;;;4982524;28;20437;-82
2021/01/03 00:33:22;;;;;;;9.55;8.27;;;15.40;49.20;;;;;;4996436;28;20042;-82
2021/01/03 00:35:51;;;;;;;9.85;8.18;;;15.40;49.20;;;;;;4961907;28;20039;-81
2021/01/03 00:38:17;;;;;;;10.25;8.07;;;15.40;49.10;;;;;;4961466;28;20047;-82
2021/01/03 00:40:43;;;;;;;10.05;8.48;;;15.40;49.10;;;;;;4993220;28;20116;-82
2021/01/03 00:43:11;;;;;;;10.02;8.35;;;15.40;49.10;;;;;;4998080;28;20126;-82
2021/01/03 00:45:38;;;;;;;8.73;7.75;;;15.40;49.00;;;;;;4968912;28;20101;-83
2021/01/03 00:48:05;;;;;;;9.55;7.78;;;15.40;49.00;;;;;;4978503;28;20038;-82
2021/01/03 00:50:31;;;;;;;9.45;8.20;;;15.40;49.00;;;;;;4989234;28;20038;-82
2021/01/03 00:52:57;;;;;;;8.68;7.68;;;15.40;48.90;;;;;;4980955;28;20428;-83
2021/01/03 00:55:23;;;;;;;9.00;7.97;;;15.40;48.80;;;;;;4978777;28;20041;-83
2021/01/03 00:57:49;;;;;;;9.77;8.13;;;15.40;48.80;;;;;;4980768;28;20039;-83
2021/01/03 01:00:21;;;;;;;8.93;7.60;;;15.40;48.70;;;;;;4997775;28;20038;-82
2021/01/03 01:02:48;;;;;;;8.27;7.00;;;15.40;48.80;;;;;;4980729;28;20369;-83
2021/01/03 01:05:15;;;;;;;8.30;7.25;;;15.40;48.70;;;;;;4996721;28;20117;-82
2021/01/03 01:07:41;;;;;;;8.13;7.28;;;15.40;48.50;;;;;;4997415;28;20061;-82
2021/01/03 01:10:10;;;;;;;7.75;6.95;;;15.40;48.50;;;;;;4995688;28;20046;-82
2021/01/03 01:12:36;;;;;;;8.32;7.40;;;15.40;48.40;;;;;;4992922;28;20046;-82
2021/01/03 01:15:08;;;;;;;8.68;7.50;;;15.40;49.10;;;;;;4996977;28;20034;-83
2021/01/03 01:17:35;;;;;;;7.85;6.93;;;15.40;48.50;;;;;;4997444;28;20053;-83
2021/01/03 01:20:00;;;;;;;7.03;6.32;;;15.40;48.30;;;;;;4996981;28;20042;-82
2021/01/03 01:22:26;;;;;;;7.97;6.95;;;15.40;48.20;;;;;;4980124;28;20484;-82
2021/01/03 01:24:52;;;;;;;7.35;6.40;;;15.40;48.10;;;;;;4966641;28;20038;-82
2021/01/03 01:27:18;;;;;;;7.25;6.50;;;15.40;48.10;;;;;;4969124;28;20453;-81
2021/01/03 01:29:43;;;;;;;6.88;6.18;;;15.40;48.10;;;;;;4979522;28;20043;-82
2021/01/03 01:32:09;;;;;;;5.47;4.97;;;15.40;48.10;;;;;;4993104;28;20458;-82
2021/01/03 01:34:35;;;;;;;6.70;6.00;;;15.40;47.90;;;;;;4970635;28;20042;-82
2021/01/03 01:37:01;;;;;;;5.72;5.10;;;15.40;47.70;;;;;;4996858;28;20096;-83
2021/01/03 01:39:27;;;;;;;5.57;5.00;;;15.40;47.70;;;;;;4966856;28;20453;-83
2021/01/03 01:41:52;;;;;;;6.05;5.45;;;15.40;47.60;;;;;;4977615;28;20045;-83
2021/01/03 01:44:18;;;;;;;6.00;5.40;;;15.40;47.70;;;;;;5006409;28;20034;-82
2021/01/03 01:47:06;;;;;;;5.57;4.70;;;15.40;47.70;;;;;;4996484;28;20034;-83
2021/01/03 01:49:40;;;;;;;4.95;4.47;;;15.40;47.50;;;;;;4979547;28;20042;-83
2021/01/03 01:52:09;;;;;;;5.38;4.65;;;15.40;47.50;;;;;;4996797;28;20034;-82
2021/01/03 01:54:41;;;;;;;5.25;4.53;;;15.40;47.50;;;;;;4994693;28;20458;-84
2021/01/03 01:57:30;;;;;;;4.30;3.90;;;15.40;47.40;;;;;;4996232;28;20043;-82
2021/01/03 02:00:09;;;;;;;5.18;4.60;;;15.50;47.50;;;;;;4978744;28;20469;-82
2021/01/03 02:02:37;;;;;;;5.15;4.65;;;15.40;47.30;;;;;;4979441;28;20034;-82
2021/01/03 02:05:18;;;;;;;5.05;4.55;;;15.50;47.30;;;;;;4965302;28;20043;-83
2021/01/03 02:07:44;;;;;;;4.60;3.97;;;15.50;47.30;;;;;;4984908;28;21385;-82
2021/01/03 02:10:16;;;;;;;5.30;4.50;;;15.50;47.20;;;;;;5011132;28;20038;-82
2021/01/03 02:12:47;;;;;;;4.63;4.22;;;15.50;47.10;;;;;;4996382;28;20117;-83
2021/01/03 02:15:26;;;;;;;4.47;3.95;;;15.50;47.10;;;;;;4996499;28;20053;-82
2021/01/03 02:17:53;;;;;;;4.45;4.05;;;15.60;47.00;;;;;;4974598;28;20042;-82
2021/01/03 02:20:19;;;;;;;4.70;4.20;;;15.60;47.00;;;;;;4979131;28;20042;-82
2021/01/03 02:22:55;;;;;;;5.53;4.97;;;15.60;46.90;;;;;;4991556;28;20066;-82
2021/01/03 02:25:22;;;;;;;4.80;4.20;;;15.60;46.80;;;;;;4967186;28;20058;-82
2021/01/03 02:28:11;;;;;;;4.93;4.00;;;15.60;46.80;;;;;;4996322;28;20042;-82
2021/01/03 02:30:38;;;;;;;5.15;4.28;;;15.60;46.70;;;;;;4973752;28;20050;-82
2021/01/03 02:33:30;;;;;;;4.50;3.97;;;15.60;46.70;;;;;;4979095;28;20480;-83
2021/01/03 02:36:01;;;;;;;4.38;3.97;;;15.60;46.60;;;;;;4971437;28;20049;-83
2021/01/03 02:38:29;;;;;;;4.68;4.28;;;15.60;46.60;;;;;;4964524;28;20117;-83
2021/01/03 02:40:56;;;;;;;7.93;4.65;;;15.60;46.50;;;;;;4959026;28;20053;-82
2021/01/03 02:43:22;;;;;;;4.95;4.45;;;15.60;46.50;;;;;;4976823;28;20093;-82
2021/01/03 02:45:47;;;;;;;5.13;3.90;;;15.60;46.50;;;;;;4971289;28;20038;-82
2021/01/03 02:48:20;;;;;;;5.00;4.50;;;15.60;46.50;;;;;;4978464;28;20038;-83
2021/01/03 02:50:46;;;;;;;5.47;4.70;;;15.60;46.40;;;;;;4978717;28;20053;-82
2021/01/03 02:53:12;;;;;;;5.70;4.65;;;15.60;46.50;;;;;;4966386;28;20118;-82
2021/01/03 02:55:38;;;;;;;5.32;4.82;;;15.60;46.40;;;;;;4968134;28;20077;-83
2021/01/03 02:58:04;;;;;;;5.60;4.90;;;15.70;46.50;;;;;;4978462;28;20445;-82
2021/01/03 03:00:36;;;;;;;5.45;4.72;;;15.70;46.50;;;;;;4995681;28;20456;-83
2021/01/03 03:03:03;;;;;;;5.70;4.90;;;15.60;46.40;;;;;;4978281;28;20442;-82
2021/01/03 03:05:29;;;;;;;6.07;5.18;;;15.60;46.50;;;;;;4991760;28;20401;-83
2021/01/03 03:07:55;;;;;;;5.85;5.10;;;15.60;46.50;;;;;;4971068;28;20039;-82
2021/01/03 03:10:22;;;;;;;5.60;4.90;;;15.70;46.50;;;;;;4995852;28;20129;-82
2021/01/03 03:12:50;;;;;;;5.30;4.80;;;15.70;46.50;;;;;;4993683;28;20058;-82
2021/01/03 03:15:17;;;;;;;6.28;5.68;;;15.70;46.50;;;;;;4982197;28;20087;-83
2021/01/03 03:17:43;;;;;;;6.72;5.60;;;15.70;46.50;;;;;;4995529;28;20034;-82
2021/01/03 03:20:11;;;;;;;6.28;5.65;;;15.70;46.60;;;;;;4995516;28;20046;-83
2021/01/03 03:22:38;;;;;;;5.47;4.85;;;15.70;46.60;;;;;;4995573;28;20042;-82
2021/01/03 03:25:06;;;;;;;6.45;5.63;;;15.70;46.60;;;;;;4977811;28;20030;-83
2021/01/03 03:27:32;;;;;;;7.50;6.22;;;15.70;46.60;;;;;;4995571;28;20041;-82
2021/01/03 03:29:58;;;;;;;7.70;6.50;;;15.70;46.60;;;;;;4960659;28;20054;-82
2021/01/03 03:32:24;;;;;;;7.90;6.50;;;15.70;46.60;;;;;;4995405;28;20057;-82
2021/01/03 03:34:50;;;;;;;8.30;7.18;;;15.70;46.70;;;;;;4965881;28;20050;-82
2021/01/03 03:37:16;;;;;;;8.65;6.95;;;15.70;46.70;;;;;;4995154;28;20130;-82
2021/01/03 03:39:42;;;;;;;8.75;7.13;;;15.70;46.70;;;;;;4995119;28;20050;-82
2021/01/03 03:42:08;;;;;;;9.40;7.78;;;15.70;46.70;;;;;;4994243;28;20050;-82
2021/01/03 03:44:34;;;;;;;9.02;7.85;;;15.70;46.70;;;;;;5010517;28;20039;-82
2021/01/03 03:47:01;;;;;;;9.82;8.10;;;15.70;46.70;;;;;;5009804;28;20092;-82
2021/01/03 03:49:28;;;;;;;10.75;8.82;;;15.70;46.80;;;;;;4995230;28;20042;-83
2021/01/03 03:51:55;;;;;;;10.32;8.32;;;15.70;46.80;;;;;;4976078;28;20173;-83
2021/01/03 03:54:22;;;;;;;11.13;8.98;;;15.70;46.80;;;;;;4995061;28;20060;-82
2021/01/03 03:56:56;;;;;;;11.75;9.40;;;15.70;46.80;;;;;;4977092;28;20096;-83
2021/01/03 03:59:22;;;;;;;13.43;9.98;;;15.70;46.80;;;;;;4995426;28;20434;-82
2021/01/03 04:01:49;;;;;;;12.40;9.80;;;15.70;46.90;;;;;;4977760;28;20041;-82
2021/01/03 04:04:15;;;;;;;13.45;10.57;;;15.70;46.90;;;;;;4983257;28;20051;-82
2021/01/03 04:06:41;;;;;;;13.65;10.63;;;15.70;46.90;;;;;;4976872;28;20144;-83
2021/01/03 04:09:07;;;;;;;12.73;10.30;;;15.70;46.90;;;;;;4979425;28;20433;-82
2021/01/03 04:11:37;;;;;;;14.18;10.75;;;15.70;46.90;;;;;;4989853;28;20026;-82
2021/01/03 04:14:03;;;;;;;14.23;11.13;;;15.70;46.90;;;;;;4993965;28;20093;-82
2021/01/03 04:16:29;;;;;;;13.98;11.27;;;15.70;46.90;;;;;;4981624;28;20042;-82
2021/01/03 04:18:54;;;;;;;13.85;11.23;;;15.70;46.90;;;;;;4998651;28;20038;-82
2021/01/03 04:21:21;;;;;;;14.05;9.88;;;15.70;47.00;;;;;;4996410;28;20401;-82
2021/01/03 04:23:47;;;;;;;16.55;11.82;;;15.70;47.00;;;;;;4998242;28;20097;-81
2021/01/03 04:26:20;;;;;;;16.00;11.60;;;15.70;47.00;;;;;;4981331;28;20038;-82
2021/01/03 04:28:46;;;;;;;16.40;12.20;;;15.80;47.00;;;;;;4962006;28;20110;-82
2021/01/03 04:31:18;;;;;;;15.98;12.00;;;15.70;47.00;;;;;;4980064;28;20363;-83
2021/01/03 04:33:44;;;;;;;16.13;12.88;;;15.70;47.00;;;;;;4978419;28;20417;-83
2021/01/03 04:36:20;;;;;;;15.18;11.70;;;15.70;47.10;;;;;;4978425;28;20045;-82
2021/01/03 04:38:47;;;;;;;16.50;12.80;;;15.70;47.10;;;;;;4978744;28;20430;-83
2021/01/03 04:41:25;;;;;;;18.02;13.27;;;15.80;47.10;;;;;;4962638;28;20058;-83
2021/01/03 04:43:51;;;;;;;17.75;12.85;;;15.80;47.10;;;;;;4996870;28;20482;-82
2021/01/03 04:46:21;;;;;;;15.82;12.13;;;15.80;47.20;;;;;;5013021;28;20034;-82
2021/01/03 04:48:50;;;;;;;17.85;13.48;;;15.80;47.10;;;;;;4980727;28;20464;-83
2021/01/03 04:51:38;;;;;;;17.50;13.02;;;15.80;47.20;;;;;;4980116;28;20053;-82
2021/01/03 04:54:18;;;;;;;18.73;13.57;;;15.80;47.20;;;;;;4998055;28;20130;-83
2021/01/03 04:56:54;;;;;;;18.40;13.43;;;15.80;47.20;;;;;;4974877;28;20438;-83
2021/01/03 04:59:38;;;;;;;18.23;13.60;;;15.80;47.20;;;;;;4968973;28;20038;-83
2021/01/03 05:02:23;;;;;;;19.65;13.43;;;15.80;47.20;;;;;;5006879;28;20068;-83
2021/01/03 05:05:24;;;;;;;19.48;13.77;;;15.80;47.20;;;;;;5012689;28;20045;-82
2021/01/03 05:08:31;;;;;;;18.05;13.18;;;15.80;47.30;;;;;;4969513;28;20145;-85
2021/01/03 05:11:05;;;;;;;18.02;13.70;;;15.80;47.50;;;;;;4963778;28;20137;-82
2021/01/03 05:13:45;;;;;;;17.25;11.88;;;15.80;47.60;;;;;;4982757;28;20049;-83
2021/01/03 05:16:15;;;;;;;16.42;11.35;;;15.90;47.90;;;;;;4996897;28;20042;-83
2021/01/03 05:18:41;;;;;;;16.05;11.23;;;16.10;48.00;;;;;;4978902;28;20089;-83
2021/01/03 05:21:07;;;;;;;13.65;9.90;;;16.30;48.00;;;;;;4996761;28;20076;-76
2021/01/03 05:23:37;;;;;;;17.45;10.45;;;16.50;47.80;;;;;;4994487;28;20369;-80
2021/01/03 05:26:05;;;;;;;16.40;9.70;;;16.80;47.60;;;;;;4996206;28;20042;-78
2021/01/03 05:28:34;;;;;;;13.80;9.90;;;17.10;47.40;;;;;;4977838;28;20050;-78
2021/01/03 05:31:16;;;;;;;19.63;10.98;;;17.30;47.40;;;;;;4995524;28;20050;-81
2021/01/03 05:33:59;;;;;;;15.02;9.43;;;17.60;47.50;;;;;;4978402;28;20061;-81
2021/01/03 05:36:50;;;;;;;15.88;10.30;;;17.70;47.30;;;;;;4976691;28;20042;-76
2021/01/03 05:39:22;;;;;;;19.80;9.80;;;17.80;47.20;;;;;;4993809;28;20121;-76
2021/01/03 05:41:55;;;;;;;20.73;9.70;;;17.90;47.30;;;;;;4996236;28;20085;-76
2021/01/03 05:44:25;;;;;;;21.57;10.47;;;17.90;47.40;;;;;;4997610;28;20061;-77
2021/01/03 05:47:05;;;;;;;18.92;8.98;;;18.00;47.70;;;;;;4996702;28;20285;-78
2021/01/03 05:49:31;;;;;;;14.00;8.70;;;18.10;47.90;;;;;;4996701;28;20042;-75
2021/01/03 05:52:07;;;;;;;15.90;9.38;;;18.10;47.80;;;;;;4997033;28;20086;-75
2021/01/03 05:54:36;;;;;;;18.80;9.73;;;18.10;47.90;;;;;;4979094;28;20370;-75
2021/01/03 05:57:38;;;;;;;20.08;9.90;;;18.10;48.40;;;;;;4977843;28;20100;-75
2021/01/03 06:00:26;;;;;;;18.25;9.07;;;18.20;49.00;;;;;;4976198;28;20046;-76
2021/01/03 06:02:52;;;;;;;14.00;8.82;;;18.30;49.10;;;;;;4986156;28;20121;-74
2021/01/03 06:05:23;;;;;;;19.42;9.57;;;18.30;48.90;;;;;;4996125;28;20457;-74
2021/01/03 06:08:28;;;;;;;17.40;9.23;;;18.40;48.80;;;;;;4996786;28;20046;-79
2021/01/03 06:10:54;;;;;;;18.75;9.00;;;18.50;49.80;;;;;;4916673;29;20116;-77
2021/01/03 06:13:24;;;;;;;16.67;8.68;;;18.60;48.90;;;;;;4901273;29;20377;-78
2021/01/03 06:16:00;;;;;;;12.10;8.52;;;18.70;48.70;;;;;;4939413;28;20482;-77
2021/01/03 06:18:50;;;;;;;14.63;7.85;;;18.80;48.70;;;;;;4976645;28;20046;-78
2021/01/03 06:21:45;;;;;;;14.07;8.07;;;18.90;48.60;;;;;;4991974;28;20122;-77
2021/01/03 06:24:24;;;;;;;11.88;7.47;;;19.10;48.50;;;;;;4968168;28;20070;-78
2021/01/03 06:26:53;;;;;;;11.88;7.47;;;19.20;48.10;;;;;;4977340;28;20058;-77
2021/01/03 06:29:47;;;;;;;14.00;7.85;;;19.30;48.00;;;;;;4976555;28;20042;-78
2021/01/03 06:32:53;;;;;;;14.90;7.88;;;19.40;47.70;;;;;;4977031;28;20034;-80
2021/01/03 06:35:52;;;;;;;17.10;9.18;;;19.60;47.60;;;;;;4977026;28;20422;-78
2021/01/03 06:38:48;;;;;;;11.98;8.07;;;19.60;47.10;;;;;;4979761;28;20046;-75
2021/01/03 06:41:24;;;;;;;19.00;8.65;;;19.70;47.20;;;;;;4985316;28;20058;-78
2021/01/03 06:44:01;;;;;;;16.08;8.25;;;19.70;47.60;;;;;;4982542;28;20054;-82
2021/01/03 06:46:51;;;;;;;19.27;8.35;;;19.80;46.90;;;;;;4979122;28;20434;-80
2021/01/03 06:49:20;;;;;;;17.92;9.00;;;19.80;46.80;;;;;;4986805;28;20040;-77
2021/01/03 06:51:49;;;;;;;16.90;8.82;;;19.80;46.60;;;;;;4994763;28;20103;-77
2021/01/03 06:54:56;;;;;;;18.73;9.05;;;19.80;46.70;;;;;;4981301;28;20054;-78
2021/01/03 06:57:34;;;;;;;17.23;9.30;;;19.80;46.90;;;;;;4995327;28;20099;-78
2021/01/03 07:00:08;;;;;;;18.83;9.32;;;19.70;46.70;;;;;;4994520;28;20053;-76
2021/01/03 07:02:39;;;;;;;23.00;9.98;;;19.80;46.70;;;;;;4992500;28;20042;-77
2021/01/03 07:05:09;;;;;;;18.85;9.18;;;19.70;46.50;;;;;;4993852;28;20042;-76
2021/01/03 07:07:38;;;;;;;12.55;9.07;;;19.70;46.70;;;;;;4994770;28;20053;-76
2021/01/03 07:10:06;;;;;;;18.13;9.38;;;19.60;46.70;;;;;;4995842;28;20120;-78
2021/01/03 07:12:40;;;;;;;13.18;9.05;;;19.60;46.80;;;;;;4994957;28;20117;-77
2021/01/03 07:15:34;;;;;;;16.30;8.57;;;19.60;47.00;;;;;;4995440;28;20046;-77
2021/01/03 07:18:09;;;;;;;17.38;9.05;;;19.50;47.00;;;;;;4984166;28;20042;-75
2021/01/03 07:20:50;;;;;;;17.30;8.63;;;19.50;47.20;;;;;;4995944;28;20076;-77
2021/01/03 07:23:35;;;;;;;14.05;8.05;;;19.50;47.30;;;;;;4994834;28;20113;-76
2021/01/03 07:26:25;;;;;;;16.27;8.85;;;19.50;47.40;;;;;;4994394;28;20070;-77
2021/01/03 07:29:00;;;;;;;17.10;8.35;;;19.50;47.60;;;;;;4993487;28;20058;-76
2021/01/03 07:31:41;;;;;;;14.85;8.35;;;19.50;47.70;;;;;;4994552;28;20058;-75
2021/01/03 07:34:31;;;;;;;13.15;8.23;;;19.50;47.80;;;;;;4995639;28;20050;-78
2021/01/03 07:37:12;;;;;;;16.60;9.10;;;19.60;47.70;;;;;;4984571;28;20066;-81
2021/01/03 07:39:56;;;;;;;20.45;9.93;;;19.60;47.60;;;;;;4993711;28;20042;-81
2021/01/03 07:42:50;;;;;;;15.43;9.25;;;19.60;47.60;;;;;;4996978;28;20050;-78
2021/01/03 07:45:39;;;;;;;28.13;10.45;;;19.60;47.60;;;;;;4994217;28;20058;-76
2021/01/03 07:48:30;;;;;;;26.08;9.55;;;19.60;47.50;;;;;;4998221;28;20117;-79
2021/01/03 07:54:58;;;;;;;27.00;9.25;;;19.60;47.50;;;;;;4996174;28;20501;-86
2021/01/03 07:57:26;;;;;;;18.85;10.35;;;19.60;47.50;;;;;;4997574;28;20060;-84
2021/01/03 07:59:56;;;;;;;23.48;10.38;;;19.60;47.60;;;;;;4981683;28;20081;-82
2021/01/03 08:02:34;;;;;;;21.23;10.45;;;19.60;47.70;;;;;;4978662;28;20042;-86
2021/01/03 08:05:04;;;;;;;20.77;10.48;;;19.60;47.90;;;;;;5013451;28;20042;-83
2021/01/03 08:07:38;;;;;;;25.45;10.50;;;19.70;48.20;;;;;;4957552;28;20373;-85
2021/01/03 08:10:11;;;;;;;27.42;11.40;;;19.70;49.10;;;;;;4963700;28;20354;-84
2021/01/03 08:12:48;;;;;;;24.13;12.27;;;19.60;48.50;;;;;;4957351;28;20501;-82
2021/01/03 08:15:17;;;;;;;21.58;11.88;;;19.60;47.80;;;;;;4978425;28;20458;-82
2021/01/03 08:17:45;;;;;;;18.52;10.75;;;19.60;48.00;;;;;;4987516;28;20058;-77
2021/01/03 08:20:23;;;;;;;15.05;10.05;;;19.60;48.00;;;;;;4995192;28;20050;-77
2021/01/03 08:22:49;;;;;;;18.75;10.57;;;19.60;47.90;;;;;;4982766;28;20047;-80
2021/01/03 08:25:27;;;;;;;20.17;10.52;;;19.60;47.90;;;;;;4979074;28;20039;-80
2021/01/03 08:28:17;;;;;;;20.23;11.02;;;19.60;48.00;;;;;;4988288;28;20071;-81
2021/01/03 08:30:45;;;;;;;25.50;11.57;;;19.60;48.20;;;;;;4976692;28;20042;-78
2021/01/03 08:33:26;;;;;;;21.92;11.45;;;19.60;48.30;;;;;;4979257;28;20058;-77
2021/01/03 08:35:52;;;;;;;17.40;11.13;;;19.60;48.10;;;;;;4979862;28;20046;-77
2021/01/03 08:38:25;;;;;;;19.20;10.98;;;19.60;48.30;;;;;;4978927;28;20524;-77
2021/01/03 08:40:51;;;;;;;19.63;10.77;;;19.60;48.20;;;;;;4978750;28;20473;-78
2021/01/03 08:43:26;;;;;;;21.33;13.10;;;19.60;48.10;;;;;;5009316;28;20056;-79
2021/01/03 08:45:52;;;;;;;25.77;12.98;;;19.60;47.90;;;;;;4997122;28;20046;-79
2021/01/03 08:48:39;;;;;;;21.98;13.00;;;19.60;47.90;;;;;;4978043;28;20125;-77
2021/01/03 08:51:24;;;;;;;22.98;12.77;;;19.60;47.70;;;;;;4978710;28;20051;-80
2021/01/03 08:53:57;;;;;;;20.48;12.25;;;19.50;47.40;;;;;;4986929;28;20104;-84
2021/01/03 08:56:34;;;;;;;27.77;12.48;;;19.50;47.30;;;;;;4950014;28;20465;-83
2021/01/03 08:59:01;;;;;;;21.60;12.30;;;19.50;47.40;;;;;;4994784;28;20058;-82
2021/01/03 09:01:33;;;;;;;25.38;12.98;;;19.40;47.40;;;;;;4961192;28;20553;-83
2021/01/03 09:04:03;;;;;;;17.25;11.43;;;19.30;47.30;;;;;;4980136;28;20044;-82
2021/01/03 09:06:30;;;;;;;21.05;11.60;;;19.30;47.30;;;;;;4980633;28;20046;-83
2021/01/03 09:08:57;;;;;;;18.17;12.10;;;19.20;47.30;;;;;;4964338;28;20042;-82
2021/01/03 09:11:33;;;;;;;22.75;12.15;;;19.10;47.30;;;;;;4964394;28;20050;-83
2021/01/03 09:14:32;;;;;;;18.05;11.27;;;19.00;47.90;;;;;;4964479;28;20078;-83
2021/01/03 09:17:09;;;;;;;19.65;12.10;;;19.00;47.40;;;;;;4964359;28;20064;-82
2021/01/03 09:20:05;;;;;;;22.13;12.00;;;18.80;47.50;;;;;;4964195;28;20050;-82
2021/01/03 09:22:43;;;;;;;21.77;12.05;;;18.70;47.50;;;;;;4979966;28;20060;-82
2021/01/03 09:25:18;;;;;;;19.73;11.90;;;18.60;47.60;;;;;;4979942;28;20397;-83
2021/01/03 09:27:51;;;;;;;16.50;11.55;;;18.50;47.80;;;;;;4980074;28;20140;-82
2021/01/03 09:30:24;;;;;;;15.15;11.90;;;18.50;48.00;;;;;;4964080;28;20107;-83
2021/01/03 09:33:07;;;;;;;16.20;12.80;;;18.30;48.00;;;;;;5012694;28;20085;-82
2021/01/03 09:35:47;;;;;;;15.90;11.88;;;18.30;48.10;;;;;;4963734;28;20050;-82
2021/01/03 09:38:38;;;;;;;14.23;11.13;;;18.20;48.30;;;;;;4979867;28;20052;-83
2021/01/03 09:41:35;;;;;;;16.02;11.18;;;18.10;48.40;;;;;;4995872;28;20535;-83
2021/01/03 09:44:15;;;;;;;19.27;12.00;;;18.00;48.60;;;;;;4996789;28;20108;-84
2021/01/03 09:46:57;;;;;;;18.27;11.82;;;17.90;48.90;;;;;;5012191;28;20137;-82
2021/01/03 09:49:43;;;;;;;17.63;11.80;;;17.80;49.20;;;;;;4963997;28;20047;-83
2021/01/03 09:52:24;;;;;;;15.30;11.60;;;17.80;49.50;;;;;;4979525;28;20380;-83
2021/01/03 09:55:08;;;;;;;15.85;12.23;;;17.70;49.70;;;;;;5011280;28;20054;-82
2021/01/03 09:57:39;;;;;;;16.23;12.00;;;17.60;49.90;;;;;;4963639;28;20429;-82
2021/01/03 10:00:08;;;;;;;16.77;12.35;;;17.50;50.00;;;;;;5011800;28;20125;-83
2021/01/03 10:02:34;;;;;;;16.70;12.30;;;17.50;50.20;;;;;;4980107;28;20068;-83
2021/01/03 10:05:00;;;;;;;19.17;13.20;;;17.50;50.30;;;;;;4995347;28;20394;-82
2021/01/03 10:07:28;;;;;;;16.27;11.90;;;17.40;50.30;;;;;;4979942;28;20046;-83
2021/01/03 10:10:01;;;;;;;14.73;11.90;;;17.30;50.40;;;;;;5012331;28;20050;-82
2021/01/03 10:12:37;;;;;;;15.55;12.38;;;17.30;50.40;;;;;;4979250;28;20077;-83
2021/01/03 10:15:26;;;;;;;16.58;12.40;;;17.20;50.50;;;;;;4979214;28;20054;-82
2021/01/03 10:17:57;;;;;;;16.45;12.57;;;17.20;50.60;;;;;;4979917;28;20064;-81
2021/01/03 10:20:51;;;;;;;16.35;12.48;;;17.10;51.20;;;;;;4979048;28;20096;-82
2021/01/03 10:23:29;;;;;;;;;;;17.10;50.60;;;;;;4980150;28;20129;-83
2021/01/03 10:25:55;;;;;;;17.08;12.43;;;17.00;50.50;;;;;;4978903;28;20004;-82
2021/01/03 10:28:21;;;;;;;13.70;11.55;;;17.00;50.80;;;;;;4978940;28;20138;-83
2021/01/03 10:30:47;;;;;;;14.57;11.77;;;17.00;50.80;;;;;;4963659;28;20089;-82
2021/01/03 10:33:13;;;;;;;16.52;12.27;;;16.90;50.80;;;;;;4978885;28;20042;-85
2021/01/03 10:35:40;;;;;;;14.05;11.10;;;16.90;50.80;;;;;;4978763;28;20112;-83
2021/01/03 10:38:08;;;;;;;14.20;12.23;;;16.90;51.00;;;;;;4963121;28;20054;-82
2021/01/03 10:40:34;;;;;;;13.82;11.80;;;16.80;50.90;;;;;;4962195;28;20060;-84
2021/01/03 10:43:00;;;;;;;15.20;11.73;;;16.80;51.00;;;;;;4979207;28;20155;-84
2021/01/03 10:45:26;;;;;;;15.10;11.73;;;16.80;51.00;;;;;;4979534;28;20056;-82
2021/01/03 10:47:53;;;;;;;15.80;12.38;;;16.70;51.00;;;;;;4979607;28;20133;-84
2021/01/03 10:50:21;;;;;;;16.73;11.80;;;16.70;51.10;;;;;;4979354;28;20042;-83
2021/01/03 10:52:47;;;;;;;16.20;12.20;;;16.70;51.10;;;;;;4962555;28;20065;-84
2021/01/03 10:55:15;;;;;;;16.75;11.88;;;16.60;51.10;;;;;;4978840;28;20058;-82
2021/01/03 10:57:41;;;;;;;14.98;11.68;;;16.60;51.10;;;;;;4962425;28;20504;-83
2021/01/03 11:00:12;;;;;;;14.55;11.43;;;16.50;51.20;;;;;;4962885;28;20062;-83
2021/01/03 11:02:38;;;;;;;15.23;11.80;;;16.50;51.20;;;;;;4963052;28;20462;-84
2021/01/03 11:05:06;;;;;;;15.23;12.18;;;16.50;51.20;;;;;;4978419;28;20047;-83
2021/01/03 11:07:33;;;;;;;14.85;11.27;;;16.50;51.30;;;;;;4978727;28;20050;-83
2021/01/03 11:09:59;;;;;;;15.23;11.15;;;16.40;51.30;;;;;;4978678;28;20038;-84
2021/01/03 11:12:24;;;;;;;14.55;11.13;;;16.40;51.30;;;;;;4962778;28;20073;-84
2021/01/03 11:14:50;;;;;;;16.02;11.07;;;16.40;51.40;;;;;;4979051;28;20408;-84
2021/01/03 11:17:17;;;;;;;16.30;12.10;;;16.40;51.40;;;;;;4965269;28;20058;-82
2021/01/03 11:19:44;;;;;;;14.30;11.10;;;16.40;51.40;;;;;;4966763;28;20046;-83
2021/01/03 11:22:13;;;;;;;14.88;12.27;;;16.30;51.50;;;;;;4967084;28;20050;-83
2021/01/03 11:24:40;;;;;;;14.77;10.90;;;16.30;51.60;;;;;;4966309;28;20053;-83
2021/01/03 11:27:12;;;;;;;15.35;11.27;;;16.30;51.60;;;;;;4982878;28;20358;-83
2021/01/03 11:29:38;;;;;;;13.15;9.85;;;16.30;51.70;;;;;;4981791;28;20042;-84
2021/01/03 11:32:13;;;;;;;13.07;10.40;;;16.20;51.60;;;;;;4966395;28;20050;-83
2021/01/03 11:34:40;;;;;;;13.38;10.55;;;16.30;51.70;;;;;;4966265;28;20141;-85
2021/01/03 11:37:09;;;;;;;14.15;10.88;;;16.30;51.70;;;;;;4966270;28;20058;-82
2021/01/03 11:39:36;;;;;;;12.10;10.40;;;16.30;51.70;;;;;;4981803;28;20053;-84
2021/01/03 11:42:08;;;;;;;13.07;9.75;;;16.30;51.70;;;;;;4982086;28;20113;-83
2021/01/03 11:44:35;;;;;;;13.73;11.00;;;16.30;51.60;;;;;;4966185;28;20524;-84
2021/01/03 11:47:04;;;;;;;12.48;10.20;;;16.30;51.60;;;;;;4966279;28;20050;-84
2021/01/03 11:49:32;;;;;;;14.55;11.10;;;16.30;51.60;;;;;;4966003;28;20074;-82
2021/01/03 11:52:00;;;;;;;13.90;10.75;;;16.40;51.70;;;;;;4982654;28;20090;-82
2021/01/03 11:54:26;;;;;;;12.85;10.52;;;16.30;51.70;;;;;;4966008;28;20439;-82
2021/01/03 11:56:56;;;;;;;11.50;9.30;;;16.30;51.70;;;;;;4966236;28;20050;-83
2021/01/03 11:59:23;;;;;;;12.13;9.43;;;16.30;51.70;;;;;;4965400;28;20046;-82
2021/01/03 12:01:49;;;;;;;14.63;10.35;;;16.30;51.70;;;;;;4980952;28;20100;-83
2021/01/03 12:04:15;;;;;;;13.13;9.75;;;16.30;51.70;;;;;;4981695;28;20102;-84
2021/01/03 12:06:41;;;;;;;12.23;9.63;;;16.30;51.70;;;;;;4965840;28;20058;-83
2021/01/03 12:09:07;;;;;;;11.57;9.10;;;16.30;51.70;;;;;;4998695;28;20062;-83
2021/01/03 12:11:33;;;;;;;11.70;9.45;;;16.30;51.70;;;;;;4999057;28;20197;-82
2021/01/03 12:14:00;;;;;;;11.73;9.60;;;16.30;51.70;;;;;;4981776;28;20438;-83
2021/01/03 12:16:30;;;;;;;11.10;8.63;;;16.30;51.70;;;;;;4981760;28;20472;-82
2021/01/03 12:18:57;;;;;;;11.15;9.07;;;16.20;51.70;;;;;;4965127;28;20361;-83
2021/01/03 12:21:31;;;;;;;11.30;8.85;;;16.20;51.70;;;;;;4965341;28;20061;-84
2021/01/03 12:23:58;;;;;;;11.23;8.63;;;16.20;51.70;;;;;;4981881;28;20062;-82
2021/01/03 12:26:33;;;;;;;10.75;7.82;;;16.20;51.70;;;;;;4965483;28;20145;-83
2021/01/03 12:28:59;;;;;;;10.05;8.13;;;16.20;51.70;;;;;;4980592;28;20042;-83
2021/01/03 12:31:35;;;;;;;9.55;7.95;;;16.20;52.40;;;;;;4964583;28;20061;-84
2021/01/03 12:34:02;;;;;;;9.25;7.18;;;16.20;51.70;;;;;;4965257;28;20124;-82
2021/01/03 12:36:28;;;;;;;10.43;7.60;;;16.20;51.70;;;;;;4981186;28;20454;-82
2021/01/03 12:38:54;;;;;;;8.57;7.20;;;16.20;51.70;;;;;;4965190;28;20158;-82
2021/01/03 12:41:21;;;;;;;7.95;6.25;;;16.20;51.70;;;;;;4980458;28;20117;-82
2021/01/03 12:43:48;;;;;;;8.23;6.68;;;16.20;51.70;;;;;;4980985;28;20480;-82
2021/01/03 12:46:22;;;;;;;8.65;6.22;;;16.20;51.60;;;;;;4980657;28;20430;-82
2021/01/03 12:48:48;;;;;;;6.88;5.50;;;16.20;51.60;;;;;;4981040;28;20074;-83
2021/01/03 12:51:14;;;;;;;7.10;5.30;;;16.20;51.50;;;;;;4998076;28;20072;-83
2021/01/03 12:53:40;;;;;;;7.95;5.63;;;16.20;51.50;;;;;;4964753;28;20141;-81
2021/01/03 12:56:06;;;;;;;7.88;5.78;;;16.20;51.60;;;;;;4964898;28;20177;-81
2021/01/03 12:58:32;;;;;;;6.35;5.32;;;16.20;51.60;;;;;;4996757;28;20117;-83
2021/01/03 13:00:58;;;;;;;6.05;5.13;;;16.20;51.60;;;;;;4980920;28;20057;-82
2021/01/03 13:03:23;;;;;;;6.88;5.10;;;16.20;51.60;;;;;;4980542;28;20050;-82
2021/01/03 13:05:49;;;;;;;6.80;4.82;;;16.20;51.60;;;;;;4980256;28;20073;-82